sensor_id;sensor_type;location;lat;lon;timestamp;temperature;humidity
37002;DHT22;22913;51.910;8.374;2023-03-01T00:00:12;-0.20;99.90
37002;DHT22;22913;51.910;8.374;2023-03-01T00:02:57;-0.30;99.90
37002;DHT22;22913;51.910;8.374;2023-03-01T00:05:44;-0.40;99.90
37002;DHT22;22913;51.910;8.374;2023-03-01T00:08:31;-0.40;99.90
37002;DHT22;22913;51.910;8.374;2023-03-01T00:11:20;-0.40;99.90
37002;DHT22;22913;51.910;8.374;2023-03-01T00:14:06;-0.50;99.90
37002;DHT22;22913;51.910;8.374;2023-03-01T00:16:53;-0.50;99.90
37002;DHT22;22913;51.910;8.374;2023-03-01T00:19:39;-0.50;99.90
37002;DHT22;22913;51.910;8.374;2023-03-01T00:22:26;-0.50;99.90
37002;DHT22;22913;51.910;8.374;2023-03-01T00:25:12;-0.50;99.90
37002;DHT22;22913;51.910;8.374;2023-03-01T00:27:58;-0.50;99.90
37002;DHT22;22913;51.910;8.374;2023-03-01T00:30:43;-0.50;99.90
37002;DHT22;22913;51.910;8.374;2023-03-01T00:33:30;-0.60;99.90
37002;DHT22;22913;51.910;8.374;2023-03-01T00:36:16;-0.50;99.90
37002;DHT22;22913;51.910;8.374;2023-03-01T00:39:03;-0.60;99.90
37002;DHT22;22913;51.910;8.374;2023-03-01T00:41:49;-0.60;99.90
37002;DHT22;22913;51.910;8.374;2023-03-01T00:44:35;-0.50;99.90
37002;DHT22;22913;51.910;8.374;2023-03-01T00:47:21;-0.50;99.90
37002;DHT22;22913;51.910;8.374;2023-03-01T00:50:10;-0.50;99.90
37002;DHT22;22913;51.910;8.374;2023-03-01T00:52:56;-0.60;99.90
37002;DHT22;22913;51.910;8.374;2023-03-01T00:55:42;-0.60;99.90
37002;DHT22;22913;51.910;8.374;2023-03-01T00:58:28;-0.60;99.90
37002;DHT22;22913;51.910;8.374;2023-03-01T01:01:16;-0.70;99.90
37002;DHT22;22913;51.910;8.374;2023-03-01T01:04:04;-0.80;99.90
37002;DHT22;22913;51.910;8.374;2023-03-01T01:06:52;-0.80;99.90
37002;DHT22;22913;51.910;8.374;2023-03-01T01:09:38;-0.90;99.90
37002;DHT22;22913;51.910;8.374;2023-03-01T01:12:24;-0.90;99.90
37002;DHT22;22913;51.910;8.374;2023-03-01T01:15:10;-0.90;99.90
37002;DHT22;22913;51.910;8.374;2023-03-01T01:17:58;-0.90;99.90
37002;DHT22;22913;51.910;8.374;2023-03-01T01:20:44;-0.90;99.90
37002;DHT22;22913;51.910;8.374;2023-03-01T01:23:31;-0.80;99.90
37002;DHT22;22913;51.910;8.374;2023-03-01T01:26:20;-0.90;99.90
37002;DHT22;22913;51.910;8.374;2023-03-01T01:29:06;-0.90;99.90
37002;DHT22;22913;51.910;8.374;2023-03-01T01:31:52;-0.90;99.90
37002;DHT22;22913;51.910;8.374;2023-03-01T01:34:38;-0.90;99.90
37002;DHT22;22913;51.910;8.374;2023-03-01T01:37:24;-0.90;99.90
37002;DHT22;22913;51.910;8.374;2023-03-01T01:40:16;-1.00;99.90
37002;DHT22;22913;51.910;8.374;2023-03-01T01:43:02;-1.00;99.90
37002;DHT22;22913;51.910;8.374;2023-03-01T01:45:49;-1.10;99.90
37002;DHT22;22913;51.910;8.374;2023-03-01T01:48:40;-1.10;99.90
37002;DHT22;22913;51.910;8.374;2023-03-01T01:51:29;-1.10;99.90
37002;DHT22;22913;51.910;8.374;2023-03-01T01:54:26;-1.10;99.90
37002;DHT22;22913;51.910;8.374;2023-03-01T01:57:18;-1.20;99.90
37002;DHT22;22913;51.910;8.374;2023-03-01T02:00:09;-1.20;99.90
37002;DHT22;22913;51.910;8.374;2023-03-01T02:02:58;-1.20;99.90
37002;DHT22;22913;51.910;8.374;2023-03-01T02:05:47;-1.20;99.90
37002;DHT22;22913;51.910;8.374;2023-03-01T02:08:37;-1.20;99.90
37002;DHT22;22913;51.910;8.374;2023-03-01T02:11:23;-1.20;99.90
37002;DHT22;22913;51.910;8.374;2023-03-01T02:14:11;-1.20;99.90
37002;DHT22;22913;51.910;8.374;2023-03-01T02:16:57;-1.20;99.90
37002;DHT22;22913;51.910;8.374;2023-03-01T02:19:50;-1.20;99.90
37002;DHT22;22913;51.910;8.374;2023-03-01T02:22:38;-1.20;99.90
37002;DHT22;22913;51.910;8.374;2023-03-01T02:25:32;-1.20;99.90
37002;DHT22;22913;51.910;8.374;2023-03-01T02:28:25;-1.30;99.90
37002;DHT22;22913;51.910;8.374;2023-03-01T02:31:14;-1.30;99.90
37002;DHT22;22913;51.910;8.374;2023-03-01T02:34:21;-1.30;99.90
37002;DHT22;22913;51.910;8.374;2023-03-01T02:37:12;-1.30;99.90
37002;DHT22;22913;51.910;8.374;2023-03-01T02:40:04;-1.30;99.90
37002;DHT22;22913;51.910;8.374;2023-03-01T02:42:54;-1.30;99.90
37002;DHT22;22913;51.910;8.374;2023-03-01T02:45:48;-1.30;99.90
37002;DHT22;22913;51.910;8.374;2023-03-01T02:48:43;-1.30;99.90
37002;DHT22;22913;51.910;8.374;2023-03-01T02:51:42;-1.30;99.90
37002;DHT22;22913;51.910;8.374;2023-03-01T02:54:36;-1.40;99.90
37002;DHT22;22913;51.910;8.374;2023-03-01T02:57:25;-1.40;99.90
37002;DHT22;22913;51.910;8.374;2023-03-01T03:00:15;-1.40;99.90
37002;DHT22;22913;51.910;8.374;2023-03-01T03:03:06;-1.50;99.90
37002;DHT22;22913;51.910;8.374;2023-03-01T03:05:52;-1.50;99.90
37002;DHT22;22913;51.910;8.374;2023-03-01T03:08:38;-1.50;99.90
37002;DHT22;22913;51.910;8.374;2023-03-01T03:11:24;-1.50;99.90
37002;DHT22;22913;51.910;8.374;2023-03-01T03:14:12;-1.50;99.90
37002;DHT22;22913;51.910;8.374;2023-03-01T03:16:58;-1.50;99.90
37002;DHT22;22913;51.910;8.374;2023-03-01T03:19:46;-1.60;99.90
37002;DHT22;22913;51.910;8.374;2023-03-01T03:22:31;-1.60;99.90
37002;DHT22;22913;51.910;8.374;2023-03-01T03:25:18;-1.60;99.90
37002;DHT22;22913;51.910;8.374;2023-03-01T03:28:06;-1.70;99.90
37002;DHT22;22913;51.910;8.374;2023-03-01T03:30:54;-1.70;99.90
37002;DHT22;22913;51.910;8.374;2023-03-01T03:33:40;-1.70;99.90
37002;DHT22;22913;51.910;8.374;2023-03-01T03:36:27;-1.70;99.90
37002;DHT22;22913;51.910;8.374;2023-03-01T03:39:13;-1.70;99.90
37002;DHT22;22913;51.910;8.374;2023-03-01T03:41:59;-1.70;99.90
37002;DHT22;22913;51.910;8.374;2023-03-01T03:44:45;-1.80;99.90
37002;DHT22;22913;51.910;8.374;2023-03-01T03:47:31;-1.70;99.90
37002;DHT22;22913;51.910;8.374;2023-03-01T03:50:18;-1.80;99.90
37002;DHT22;22913;51.910;8.374;2023-03-01T03:53:07;-1.80;99.90
37002;DHT22;22913;51.910;8.374;2023-03-01T03:55:53;-1.90;99.90
37002;DHT22;22913;51.910;8.374;2023-03-01T03:58:39;-1.90;99.90
37002;DHT22;22913;51.910;8.374;2023-03-01T04:01:25;-1.80;99.90
37002;DHT22;22913;51.910;8.374;2023-03-01T04:04:11;-1.80;99.90
37002;DHT22;22913;51.910;8.374;2023-03-01T04:06:57;-1.80;99.90
37002;DHT22;22913;51.910;8.374;2023-03-01T04:09:44;-1.90;99.90
37002;DHT22;22913;51.910;8.374;2023-03-01T04:12:30;-1.90;99.90
37002;DHT22;22913;51.910;8.374;2023-03-01T04:15:18;-1.90;99.90
37002;DHT22;22913;51.910;8.374;2023-03-01T04:18:04;-1.90;99.90
37002;DHT22;22913;51.910;8.374;2023-03-01T04:20:50;-1.80;99.90
37002;DHT22;22913;51.910;8.374;2023-03-01T04:23:39;-1.80;99.90
37002;DHT22;22913;51.910;8.374;2023-03-01T04:26:27;-1.80;99.90
37002;DHT22;22913;51.910;8.374;2023-03-01T04:29:13;-1.80;99.90
37002;DHT22;22913;51.910;8.374;2023-03-01T04:31:58;-1.80;99.90
37002;DHT22;22913;51.910;8.374;2023-03-01T04:34:45;-1.80;99.90
37002;DHT22;22913;51.910;8.374;2023-03-01T04:37:30;-1.80;99.90
37002;DHT22;22913;51.910;8.374;2023-03-01T04:40:16;-1.80;99.90
37002;DHT22;22913;51.910;8.374;2023-03-01T04:43:04;-1.70;99.90
37002;DHT22;22913;51.910;8.374;2023-03-01T04:45:49;-1.80;99.90
37002;DHT22;22913;51.910;8.374;2023-03-01T04:48:36;-1.80;99.90
37002;DHT22;22913;51.910;8.374;2023-03-01T04:51:22;-1.90;99.90
37002;DHT22;22913;51.910;8.374;2023-03-01T04:54:07;-1.90;99.90
37002;DHT22;22913;51.910;8.374;2023-03-01T04:56:54;-1.90;99.90
37002;DHT22;22913;51.910;8.374;2023-03-01T04:59:41;-2.00;99.90
37002;DHT22;22913;51.910;8.374;2023-03-01T05:02:26;-2.00;99.90
37002;DHT22;22913;51.910;8.374;2023-03-01T05:05:12;-2.00;99.90
37002;DHT22;22913;51.910;8.374;2023-03-01T05:08:00;-1.90;99.90
37002;DHT22;22913;51.910;8.374;2023-03-01T05:10:48;-1.90;99.90
37002;DHT22;22913;51.910;8.374;2023-03-01T05:13:35;-2.00;99.90
37002;DHT22;22913;51.910;8.374;2023-03-01T05:16:22;-2.00;99.90
37002;DHT22;22913;51.910;8.374;2023-03-01T05:19:08;-2.00;99.90
37002;DHT22;22913;51.910;8.374;2023-03-01T05:21:59;-2.00;99.90
37002;DHT22;22913;51.910;8.374;2023-03-01T05:24:48;-2.00;99.90
37002;DHT22;22913;51.910;8.374;2023-03-01T05:27:34;-2.00;99.90
37002;DHT22;22913;51.910;8.374;2023-03-01T05:30:19;-2.10;99.90
37002;DHT22;22913;51.910;8.374;2023-03-01T05:33:07;-2.10;99.90
37002;DHT22;22913;51.910;8.374;2023-03-01T05:36:00;-2.20;99.90
37002;DHT22;22913;51.910;8.374;2023-03-01T05:38:45;-2.20;99.90
37002;DHT22;22913;51.910;8.374;2023-03-01T05:41:31;-2.20;99.90
37002;DHT22;22913;51.910;8.374;2023-03-01T05:44:17;-2.20;99.90
37002;DHT22;22913;51.910;8.374;2023-03-01T05:47:02;-2.10;99.90
37002;DHT22;22913;51.910;8.374;2023-03-01T05:49:49;-2.20;99.90
37002;DHT22;22913;51.910;8.374;2023-03-01T05:52:35;-2.20;99.90
37002;DHT22;22913;51.910;8.374;2023-03-01T05:55:21;-2.20;99.90
37002;DHT22;22913;51.910;8.374;2023-03-01T05:58:09;-2.30;99.90
37002;DHT22;22913;51.910;8.374;2023-03-01T06:00:55;-2.30;99.90
37002;DHT22;22913;51.910;8.374;2023-03-01T06:03:41;-2.40;99.90
37002;DHT22;22913;51.910;8.374;2023-03-01T06:06:28;-2.40;99.90
37002;DHT22;22913;51.910;8.374;2023-03-01T06:09:14;-2.40;99.90
37002;DHT22;22913;51.910;8.374;2023-03-01T06:12:00;-2.40;99.90
37002;DHT22;22913;51.910;8.374;2023-03-01T06:14:46;-2.40;99.90
37002;DHT22;22913;51.910;8.374;2023-03-01T06:17:34;-2.40;99.90
37002;DHT22;22913;51.910;8.374;2023-03-01T06:20:23;-2.40;99.90
37002;DHT22;22913;51.910;8.374;2023-03-01T06:23:10;-2.40;99.90
37002;DHT22;22913;51.910;8.374;2023-03-01T06:25:55;-2.30;99.90
37002;DHT22;22913;51.910;8.374;2023-03-01T06:28:41;-2.30;99.90
37002;DHT22;22913;51.910;8.374;2023-03-01T06:31:30;-2.30;99.90
37002;DHT22;22913;51.910;8.374;2023-03-01T06:34:15;-2.30;99.90
37002;DHT22;22913;51.910;8.374;2023-03-01T06:37:01;-2.40;99.90
37002;DHT22;22913;51.910;8.374;2023-03-01T06:39:50;-2.30;99.90
37002;DHT22;22913;51.910;8.374;2023-03-01T06:42:37;-2.30;99.90
37002;DHT22;22913;51.910;8.374;2023-03-01T06:45:24;-2.30;99.90
37002;DHT22;22913;51.910;8.374;2023-03-01T06:48:10;-2.30;99.90
37002;DHT22;22913;51.910;8.374;2023-03-01T06:50:58;-2.30;99.90
37002;DHT22;22913;51.910;8.374;2023-03-01T06:53:45;-2.30;99.90
37002;DHT22;22913;51.910;8.374;2023-03-01T06:56:32;-2.30;99.90
37002;DHT22;22913;51.910;8.374;2023-03-01T06:59:19;-2.20;99.90
37002;DHT22;22913;51.910;8.374;2023-03-01T07:02:04;-2.20;99.90
37002;DHT22;22913;51.910;8.374;2023-03-01T07:04:50;-2.10;99.90
37002;DHT22;22913;51.910;8.374;2023-03-01T07:07:36;-2.10;99.90
37002;DHT22;22913;51.910;8.374;2023-03-01T07:10:22;-2.00;99.90
37002;DHT22;22913;51.910;8.374;2023-03-01T07:13:10;-2.00;99.90
37002;DHT22;22913;51.910;8.374;2023-03-01T07:15:56;-1.90;99.90
37002;DHT22;22913;51.910;8.374;2023-03-01T07:18:41;-1.90;99.90
37002;DHT22;22913;51.910;8.374;2023-03-01T07:21:27;-1.80;99.90
37002;DHT22;22913;51.910;8.374;2023-03-01T07:24:14;-1.70;99.90
37002;DHT22;22913;51.910;8.374;2023-03-01T07:26:59;-1.60;99.90
37002;DHT22;22913;51.910;8.374;2023-03-01T07:29:46;-1.60;99.90
37002;DHT22;22913;51.910;8.374;2023-03-01T07:32:32;-1.50;99.90
37002;DHT22;22913;51.910;8.374;2023-03-01T07:35:18;-1.40;99.90
37002;DHT22;22913;51.910;8.374;2023-03-01T07:38:04;-1.30;99.90
37002;DHT22;22913;51.910;8.374;2023-03-01T07:40:50;-1.20;99.90
37002;DHT22;22913;51.910;8.374;2023-03-01T07:43:36;-1.20;99.90
37002;DHT22;22913;51.910;8.374;2023-03-01T07:46:23;-1.10;99.90
37002;DHT22;22913;51.910;8.374;2023-03-01T07:49:09;-1.00;99.90
37002;DHT22;22913;51.910;8.374;2023-03-01T07:51:55;-1.00;99.90
37002;DHT22;22913;51.910;8.374;2023-03-01T07:54:43;-0.80;99.90
37002;DHT22;22913;51.910;8.374;2023-03-01T07:57:29;-0.80;99.90
37002;DHT22;22913;51.910;8.374;2023-03-01T08:00:16;-0.70;99.90
37002;DHT22;22913;51.910;8.374;2023-03-01T08:03:03;-0.60;99.90
37002;DHT22;22913;51.910;8.374;2023-03-01T08:05:49;-0.50;99.90
37002;DHT22;22913;51.910;8.374;2023-03-01T08:08:36;-0.40;99.90
37002;DHT22;22913;51.910;8.374;2023-03-01T08:11:21;-0.20;99.90
37002;DHT22;22913;51.910;8.374;2023-03-01T08:14:07;-0.10;99.90
37002;DHT22;22913;51.910;8.374;2023-03-01T08:16:54;0.00;99.90
37002;DHT22;22913;51.910;8.374;2023-03-01T08:19:42;0.10;99.90
37002;DHT22;22913;51.910;8.374;2023-03-01T08:22:29;0.30;99.90
37002;DHT22;22913;51.910;8.374;2023-03-01T08:25:14;0.30;99.90
37002;DHT22;22913;51.910;8.374;2023-03-01T08:28:00;0.50;99.90
37002;DHT22;22913;51.910;8.374;2023-03-01T08:30:46;0.60;99.90
37002;DHT22;22913;51.910;8.374;2023-03-01T08:33:32;0.70;99.90
37002;DHT22;22913;51.910;8.374;2023-03-01T08:36:19;0.90;99.90
37002;DHT22;22913;51.910;8.374;2023-03-01T08:39:06;1.00;99.90
37002;DHT22;22913;51.910;8.374;2023-03-01T08:41:51;1.10;99.90
37002;DHT22;22913;51.910;8.374;2023-03-01T08:44:37;1.20;99.90
37002;DHT22;22913;51.910;8.374;2023-03-01T08:47:23;1.40;99.90
37002;DHT22;22913;51.910;8.374;2023-03-01T08:50:09;1.50;99.90
37002;DHT22;22913;51.910;8.374;2023-03-01T08:52:56;1.60;99.90
37002;DHT22;22913;51.910;8.374;2023-03-01T08:55:42;1.70;99.90
37002;DHT22;22913;51.910;8.374;2023-03-01T08:58:28;1.80;99.90
37002;DHT22;22913;51.910;8.374;2023-03-01T09:01:16;2.00;99.90
37002;DHT22;22913;51.910;8.374;2023-03-01T09:04:02;2.10;99.90
37002;DHT22;22913;51.910;8.374;2023-03-01T09:06:48;2.20;99.90
37002;DHT22;22913;51.910;8.374;2023-03-01T09:09:35;2.30;99.90
37002;DHT22;22913;51.910;8.374;2023-03-01T09:12:20;2.30;99.90
37002;DHT22;22913;51.910;8.374;2023-03-01T09:15:07;2.50;99.90
37002;DHT22;22913;51.910;8.374;2023-03-01T09:17:54;2.50;99.90
37002;DHT22;22913;51.910;8.374;2023-03-01T09:20:40;2.60;99.90
37002;DHT22;22913;51.910;8.374;2023-03-01T09:23:25;2.70;99.90
37002;DHT22;22913;51.910;8.374;2023-03-01T09:26:14;2.80;99.90
37002;DHT22;22913;51.910;8.374;2023-03-01T09:29:01;2.90;99.90
37002;DHT22;22913;51.910;8.374;2023-03-01T09:31:46;2.90;99.90
37002;DHT22;22913;51.910;8.374;2023-03-01T09:34:32;3.00;99.90
37002;DHT22;22913;51.910;8.374;2023-03-01T09:37:38;3.10;99.90
37002;DHT22;22913;51.910;8.374;2023-03-01T09:40:28;3.20;99.90
37002;DHT22;22913;51.910;8.374;2023-03-01T09:43:23;3.30;99.90
37002;DHT22;22913;51.910;8.374;2023-03-01T09:46:11;3.40;99.90
37002;DHT22;22913;51.910;8.374;2023-03-01T09:49:01;3.40;99.90
37002;DHT22;22913;51.910;8.374;2023-03-01T09:52:00;3.50;99.90
37002;DHT22;22913;51.910;8.374;2023-03-01T09:54:46;3.70;99.90
37002;DHT22;22913;51.910;8.374;2023-03-01T09:57:36;3.90;99.90
37002;DHT22;22913;51.910;8.374;2023-03-01T10:00:36;4.00;99.90
37002;DHT22;22913;51.910;8.374;2023-03-01T10:03:26;4.10;99.90
37002;DHT22;22913;51.910;8.374;2023-03-01T10:06:18;4.20;99.90
37002;DHT22;22913;51.910;8.374;2023-03-01T10:09:07;4.40;99.90
37002;DHT22;22913;51.910;8.374;2023-03-01T10:11:56;4.50;99.90
37002;DHT22;22913;51.910;8.374;2023-03-01T10:14:48;4.70;99.90
37002;DHT22;22913;51.910;8.374;2023-03-01T10:17:41;4.80;99.90
37002;DHT22;22913;51.910;8.374;2023-03-01T10:20:33;4.90;99.90
37002;DHT22;22913;51.910;8.374;2023-03-01T10:23:26;5.10;99.90
37002;DHT22;22913;51.910;8.374;2023-03-01T10:29:26;5.40;99.90
37002;DHT22;22913;51.910;8.374;2023-03-01T10:32:14;5.60;99.90
37002;DHT22;22913;51.910;8.374;2023-03-01T10:35:01;5.80;99.90
37002;DHT22;22913;51.910;8.374;2023-03-01T10:37:57;6.00;99.90
37002;DHT22;22913;51.910;8.374;2023-03-01T10:40:51;6.10;99.90
37002;DHT22;22913;51.910;8.374;2023-03-01T10:43:44;6.30;99.90
37002;DHT22;22913;51.910;8.374;2023-03-01T10:46:31;6.50;99.90
37002;DHT22;22913;51.910;8.374;2023-03-01T10:49:19;6.80;99.90
37002;DHT22;22913;51.910;8.374;2023-03-01T10:52:18;7.00;99.90
37002;DHT22;22913;51.910;8.374;2023-03-01T10:55:23;7.30;99.90
37002;DHT22;22913;51.910;8.374;2023-03-01T10:58:17;7.60;99.90
37002;DHT22;22913;51.910;8.374;2023-03-01T11:01:05;7.80;99.90
37002;DHT22;22913;51.910;8.374;2023-03-01T11:04:09;8.10;99.90
37002;DHT22;22913;51.910;8.374;2023-03-01T11:06:59;8.50;99.90
37002;DHT22;22913;51.910;8.374;2023-03-01T11:09:46;8.80;99.90
37002;DHT22;22913;51.910;8.374;2023-03-01T11:12:31;9.10;99.90
37002;DHT22;22913;51.910;8.374;2023-03-01T11:15:24;9.30;99.90
37002;DHT22;22913;51.910;8.374;2023-03-01T11:18:19;9.50;99.90
37002;DHT22;22913;51.910;8.374;2023-03-01T11:21:07;10.00;99.90
37002;DHT22;22913;51.910;8.374;2023-03-01T11:23:53;10.20;99.90
37002;DHT22;22913;51.910;8.374;2023-03-01T11:26:43;10.70;99.90
37002;DHT22;22913;51.910;8.374;2023-03-01T11:29:34;10.90;99.90
37002;DHT22;22913;51.910;8.374;2023-03-01T11:32:24;11.30;99.90
37002;DHT22;22913;51.910;8.374;2023-03-01T11:35:15;11.20;99.90
37002;DHT22;22913;51.910;8.374;2023-03-01T11:38:15;11.50;99.90
37002;DHT22;22913;51.910;8.374;2023-03-01T11:41:06;12.00;99.90
37002;DHT22;22913;51.910;8.374;2023-03-01T11:43:57;12.20;99.90
37002;DHT22;22913;51.910;8.374;2023-03-01T11:50:16;13.70;99.90
37002;DHT22;22913;51.910;8.374;2023-03-01T11:53:28;14.40;99.90
37002;DHT22;22913;51.910;8.374;2023-03-01T11:56:26;14.60;99.90
37002;DHT22;22913;51.910;8.374;2023-03-01T11:59:47;14.70;98.20
37002;DHT22;22913;51.910;8.374;2023-03-01T12:06:32;15.20;96.10
37002;DHT22;22913;51.910;8.374;2023-03-01T12:09:30;15.50;93.40
37002;DHT22;22913;51.910;8.374;2023-03-01T12:12:42;15.90;91.90
37002;DHT22;22913;51.910;8.374;2023-03-01T12:15:52;15.70;90.90
37002;DHT22;22913;51.910;8.374;2023-03-01T12:19:07;15.80;90.10
37002;DHT22;22913;51.910;8.374;2023-03-01T12:22:13;16.00;89.50
37002;DHT22;22913;51.910;8.374;2023-03-01T12:25:25;16.40;87.50
37002;DHT22;22913;51.910;8.374;2023-03-01T12:35:09;16.90;83.70
37002;DHT22;22913;51.910;8.374;2023-03-01T12:38:10;17.20;81.80
37002;DHT22;22913;51.910;8.374;2023-03-01T12:41:27;17.50;80.50
37002;DHT22;22913;51.910;8.374;2023-03-01T12:44:30;17.30;79.70
37002;DHT22;22913;51.910;8.374;2023-03-01T12:47:30;17.70;79.90
37002;DHT22;22913;51.910;8.374;2023-03-01T12:50:23;18.10;77.90
37002;DHT22;22913;51.910;8.374;2023-03-01T12:53:20;18.40;77.00
37002;DHT22;22913;51.910;8.374;2023-03-01T12:56:09;18.90;76.00
37002;DHT22;22913;51.910;8.374;2023-03-01T12:59:02;19.00;75.10
37002;DHT22;22913;51.910;8.374;2023-03-01T13:01:55;19.20;73.50
37002;DHT22;22913;51.910;8.374;2023-03-01T13:04:59;19.40;72.50
37002;DHT22;22913;51.910;8.374;2023-03-01T13:07:54;19.50;70.40
37002;DHT22;22913;51.910;8.374;2023-03-01T13:10:45;19.30;68.50
37002;DHT22;22913;51.910;8.374;2023-03-01T13:13:33;19.40;66.70
37002;DHT22;22913;51.910;8.374;2023-03-01T13:16:40;19.40;65.90
37002;DHT22;22913;51.910;8.374;2023-03-01T13:19:29;19.20;65.00
37002;DHT22;22913;51.910;8.374;2023-03-01T13:22:29;19.30;65.50
37002;DHT22;22913;51.910;8.374;2023-03-01T13:25:18;19.30;64.60
37002;DHT22;22913;51.910;8.374;2023-03-01T13:28:36;19.40;64.40
37002;DHT22;22913;51.910;8.374;2023-03-01T13:34:50;19.80;63.30
37002;DHT22;22913;51.910;8.374;2023-03-01T13:37:38;20.20;62.80
37002;DHT22;22913;51.910;8.374;2023-03-01T13:40:57;20.30;61.20
37002;DHT22;22913;51.910;8.374;2023-03-01T13:43:46;20.20;60.20
37002;DHT22;22913;51.910;8.374;2023-03-01T13:46:32;20.30;60.60
37002;DHT22;22913;51.910;8.374;2023-03-01T13:49:20;20.40;60.60
37002;DHT22;22913;51.910;8.374;2023-03-01T13:52:34;20.70;60.30
37002;DHT22;22913;51.910;8.374;2023-03-01T13:55:24;20.40;58.40
37002;DHT22;22913;51.910;8.374;2023-03-01T13:58:19;20.00;57.60
37002;DHT22;22913;51.910;8.374;2023-03-01T14:01:07;20.10;57.80
37002;DHT22;22913;51.910;8.374;2023-03-01T14:03:53;20.70;58.10
37002;DHT22;22913;51.910;8.374;2023-03-01T14:06:39;21.30;56.20
37002;DHT22;22913;51.910;8.374;2023-03-01T14:09:28;20.80;55.20
37002;DHT22;22913;51.910;8.374;2023-03-01T14:12:24;20.70;55.60
37002;DHT22;22913;51.910;8.374;2023-03-01T14:15:17;20.40;56.10
37002;DHT22;22913;51.910;8.374;2023-03-01T14:18:08;20.10;55.60
37002;DHT22;22913;51.910;8.374;2023-03-01T14:20:57;20.60;56.00
37002;DHT22;22913;51.910;8.374;2023-03-01T14:23:42;20.80;55.30
37002;DHT22;22913;51.910;8.374;2023-03-01T14:26:30;20.50;54.40
37002;DHT22;22913;51.910;8.374;2023-03-01T14:29:26;20.50;54.30
37002;DHT22;22913;51.910;8.374;2023-03-01T14:32:18;20.40;52.70
37002;DHT22;22913;51.910;8.374;2023-03-01T14:35:20;20.20;53.70
37002;DHT22;22913;51.910;8.374;2023-03-01T14:38:19;20.70;52.50
37002;DHT22;22913;51.910;8.374;2023-03-01T14:41:07;20.80;52.50
37002;DHT22;22913;51.910;8.374;2023-03-01T14:43:56;20.60;52.50
37002;DHT22;22913;51.910;8.374;2023-03-01T14:46:45;20.50;52.00
37002;DHT22;22913;51.910;8.374;2023-03-01T14:49:31;20.30;52.40
37002;DHT22;22913;51.910;8.374;2023-03-01T14:52:20;20.30;52.00
37002;DHT22;22913;51.910;8.374;2023-03-01T14:55:15;20.80;51.50
37002;DHT22;22913;51.910;8.374;2023-03-01T14:58:03;21.40;51.40
37002;DHT22;22913;51.910;8.374;2023-03-01T15:00:51;22.30;51.00
37002;DHT22;22913;51.910;8.374;2023-03-01T15:03:42;22.70;50.50
37002;DHT22;22913;51.910;8.374;2023-03-01T15:06:29;22.50;51.50
37002;DHT22;22913;51.910;8.374;2023-03-01T15:09:15;22.90;50.20
37002;DHT22;22913;51.910;8.374;2023-03-01T15:15:33;23.00;50.40
37002;DHT22;22913;51.910;8.374;2023-03-01T15:18:21;23.10;49.60
37002;DHT22;22913;51.910;8.374;2023-03-01T15:21:15;23.00;50.00
37002;DHT22;22913;51.910;8.374;2023-03-01T15:24:05;23.00;50.60
37002;DHT22;22913;51.910;8.374;2023-03-01T15:27:03;23.10;50.20
37002;DHT22;22913;51.910;8.374;2023-03-01T15:29:52;22.70;50.40
37002;DHT22;22913;51.910;8.374;2023-03-01T15:32:39;22.40;50.50
37002;DHT22;22913;51.910;8.374;2023-03-01T15:35:39;22.30;50.90
37002;DHT22;22913;51.910;8.374;2023-03-01T15:38:32;22.30;51.20
37002;DHT22;22913;51.910;8.374;2023-03-01T15:41:23;22.40;51.20
37002;DHT22;22913;51.910;8.374;2023-03-01T15:44:17;21.90;51.20
37002;DHT22;22913;51.910;8.374;2023-03-01T15:47:08;21.40;52.40
37002;DHT22;22913;51.910;8.374;2023-03-01T15:50:16;21.50;51.70
37002;DHT22;22913;51.910;8.374;2023-03-01T15:53:06;21.60;50.70
37002;DHT22;22913;51.910;8.374;2023-03-01T15:55:56;20.80;51.30
37002;DHT22;22913;51.910;8.374;2023-03-01T15:58:42;19.80;52.40
37002;DHT22;22913;51.910;8.374;2023-03-01T16:01:28;19.20;53.80
37002;DHT22;22913;51.910;8.374;2023-03-01T16:04:16;19.10;54.10
37002;DHT22;22913;51.910;8.374;2023-03-01T16:07:08;18.40;54.70
37002;DHT22;22913;51.910;8.374;2023-03-01T16:09:53;18.00;55.50
37002;DHT22;22913;51.910;8.374;2023-03-01T16:12:41;18.00;55.60
37002;DHT22;22913;51.910;8.374;2023-03-01T16:15:28;17.60;56.00
37002;DHT22;22913;51.910;8.374;2023-03-01T16:18:14;17.10;56.50
37002;DHT22;22913;51.910;8.374;2023-03-01T16:21:00;17.00;56.90
37002;DHT22;22913;51.910;8.374;2023-03-01T16:23:45;16.90;57.20
37002;DHT22;22913;51.910;8.374;2023-03-01T16:26:31;16.40;58.40
37002;DHT22;22913;51.910;8.374;2023-03-01T16:29:18;15.90;59.20
37002;DHT22;22913;51.910;8.374;2023-03-01T16:32:04;15.30;60.00
37002;DHT22;22913;51.910;8.374;2023-03-01T16:34:50;14.80;60.80
37002;DHT22;22913;51.910;8.374;2023-03-01T16:37:36;14.40;62.30
37002;DHT22;22913;51.910;8.374;2023-03-01T16:40:24;14.00;63.00
37002;DHT22;22913;51.910;8.374;2023-03-01T16:43:11;13.40;63.90
37002;DHT22;22913;51.910;8.374;2023-03-01T16:45:58;12.60;65.50
37002;DHT22;22913;51.910;8.374;2023-03-01T16:48:44;12.00;66.80
37002;DHT22;22913;51.910;8.374;2023-03-01T16:51:30;11.50;68.60
37002;DHT22;22913;51.910;8.374;2023-03-01T16:54:18;10.90;70.40
37002;DHT22;22913;51.910;8.374;2023-03-01T16:57:04;10.50;72.80
37002;DHT22;22913;51.910;8.374;2023-03-01T16:59:51;10.20;74.50
37002;DHT22;22913;51.910;8.374;2023-03-01T17:02:39;10.00;74.80
37002;DHT22;22913;51.910;8.374;2023-03-01T17:05:25;9.90;76.10
37002;DHT22;22913;51.910;8.374;2023-03-01T17:08:10;9.60;77.50
37002;DHT22;22913;51.910;8.374;2023-03-01T17:11:02;9.30;80.20
37002;DHT22;22913;51.910;8.374;2023-03-01T17:13:48;9.10;80.90
37002;DHT22;22913;51.910;8.374;2023-03-01T17:16:34;8.80;82.30
37002;DHT22;22913;51.910;8.374;2023-03-01T17:19:21;8.60;83.60
37002;DHT22;22913;51.910;8.374;2023-03-01T17:22:07;8.40;85.50
37002;DHT22;22913;51.910;8.374;2023-03-01T17:24:52;8.20;88.40
37002;DHT22;22913;51.910;8.374;2023-03-01T17:27:39;8.10;89.80
37002;DHT22;22913;51.910;8.374;2023-03-01T17:30:25;8.00;90.40
37002;DHT22;22913;51.910;8.374;2023-03-01T17:33:11;7.80;91.20
37002;DHT22;22913;51.910;8.374;2023-03-01T17:35:58;7.60;91.90
37002;DHT22;22913;51.910;8.374;2023-03-01T17:38:44;7.50;92.40
37002;DHT22;22913;51.910;8.374;2023-03-01T17:41:30;7.30;92.90
37002;DHT22;22913;51.910;8.374;2023-03-01T17:44:15;7.20;93.80
37002;DHT22;22913;51.910;8.374;2023-03-01T17:47:02;7.10;94.60
37002;DHT22;22913;51.910;8.374;2023-03-01T17:49:48;7.10;95.20
37002;DHT22;22913;51.910;8.374;2023-03-01T17:52:35;7.00;96.10
37002;DHT22;22913;51.910;8.374;2023-03-01T17:55:20;6.80;97.10
37002;DHT22;22913;51.910;8.374;2023-03-01T17:58:07;6.70;97.60
37002;DHT22;22913;51.910;8.374;2023-03-01T18:00:53;6.70;98.60
37002;DHT22;22913;51.910;8.374;2023-03-01T18:03:40;6.60;99.00
37002;DHT22;22913;51.910;8.374;2023-03-01T18:06:28;6.50;99.90
37002;DHT22;22913;51.910;8.374;2023-03-01T18:09:15;6.40;99.90
37002;DHT22;22913;51.910;8.374;2023-03-01T18:12:01;6.40;99.90
37002;DHT22;22913;51.910;8.374;2023-03-01T18:14:48;6.30;99.90
37002;DHT22;22913;51.910;8.374;2023-03-01T18:17:36;6.20;99.90